Vadito, New Mexico
Current Conditions -  °F | °C
As of 8:15 PM on Monday 20 Oct 2014 (Local Time) from KSKX Reporting Station
Clear Clear  
Wind Chill: 55°   Ceiling: Unl
Heat Index: 55°   Visibility: 10mi
Dew Point: 36°   Wind: 10mph
Humidity: 47%   Direction: 140°SE
Pressure: 30.24"   Gusts: NA
Location:  36.19°N, 105.68°W
Report Text: KSKX 210215Z AUTO 14009KT 10SM CLR 13/02 A3024 RMK AO1
Loading
Personal Weather Stations






























Interactive Weather Map
Tropical Storm Tracking
New forecast layout! Learn more

10-Day Weather Forecast

Advertisements
Track Severe Weather on mobile